Aérodrome :
LOGIN :

S'inscrire | Disclaimer

   EN    FR    IT 

 










Légende :    VFR   VFR Marginal   IFR   IFR Intensif   IFR Très Intensif
Visi : 
Plafond : 
>= 8 km
>= 3000ft
5 à 8 km
1000 à 3000 ft
1500m à 5 km
500 à 1000 ft
800 à 1500m
200 à 500 ft
< 800m
< 200 ft
Symboles :   Orages  Brouillard  Fortes neiges  Fortes précipitations  Vent > 20 kt
SIGMETs :   Divers  Orages  Givrage  Turbulence  Onde Orograph.  Cendres Volcan.







- Altitude de l'aérodrome : 296 ft
- Code IATA : GKE


ETNG - Geilenkirchen

DERNIER METAR :
  • 140350Z 25022G38KT 6000 -SHRA SCT012 BKN018 03/01 Q0990

METARs EXPIRÉS :
  • 140250Z 22012G23KT 9999 FEW005 SCT012 BKN020 02/01 Q0989 RESHRASN
  • 140206Z 24012G26KT 4000 SHRASN FEW007 BKN013 BKN020 03/01 Q0990
  • 140150Z 23015G31KT 4500 SHRA FEW007 BKN015 BKN020 05/02 Q0989

TAF TAF ETNG
Valide du 14 à 03h jusqu'au 14 à 18h UTC


140200Z 1403/1418 24010G20KT 9999 SCT015 BKN020
TEMPO 1403/1405 26020G40KT 4000 SHRASNGS BKN010 SCT015CB
PROB30
TEMPO 1403/1405 TSRASNGS
BECMG 1405/1407 23014G28KT
PROB40
TEMPO 1409/1418 25018G35KT 5000 -SHRA SCT014TCU BKN020
Pas de NOTAMs connus pour ce terrain.
1 SIGMET publié pour la FIR Langen (EDGG) :
 
Turbulence forte
EDGG SIGMET 1 VALID 140200/140500 EDZF
EDGG LANGEN FIR SEV TURB FCST S OF N4930 SFC/5000FT MOV E NC=



MET'MAP, la Météo Aéronautique d'un coup d'oeil ! - Copyright ORBIFLY Décembre 2007 - Disclaimer

ORBIFLY MET'MAP TEAM :

Programmation & Développement : Alexandra Zaïnal
Conception & Développement : Baudouin d'Aumeries
Co-Programmation & Développement : Marc-Olivier Méhu
Soutien technique & logistique : Manuel Goepfert

Contact : metmap@orbifly.com




SOURCES & CREDITS :

   NOAA